createdAt,value
2022-09-06T00:01:17.788Z,99660.38
2022-09-06T00:03:46.452Z,99663.03
2022-09-06T00:08:47.138Z,99657.97
2022-09-06T00:11:16.346Z,99651.31
2022-09-06T00:13:44.884Z,99648.66
2022-09-06T00:16:16.729Z,99657.44
2022-09-06T00:21:18.672Z,99654.50
2022-09-06T00:23:46.632Z,99654.78
2022-09-06T00:28:42.810Z,99652.88
2022-09-06T00:33:42.038Z,99662.75
2022-09-06T00:36:11.337Z,99662.47
2022-09-06T00:38:39.963Z,99665.13
2022-09-06T00:41:10.175Z,99664.84
2022-09-06T00:43:38.549Z,99660.06
2022-09-06T00:46:08.308Z,99660.06
2022-09-06T00:51:12.247Z,99660.31
2022-09-06T00:53:40.371Z,99664.59
2022-09-06T00:56:08.767Z,99663.25
2022-09-06T00:58:37.373Z,99658.97
2022-09-06T01:01:06.783Z,99660.03
2022-09-06T01:03:35.689Z,99658.16
2022-09-06T01:09:00.264Z,99666.66
2022-09-06T01:11:42.507Z,99666.66
2022-09-06T01:14:26.947Z,99667.75
2022-09-06T01:17:06.312Z,99666.44
2022-09-06T01:20:09.582Z,99658.41
2022-09-06T01:23:16.886Z,99661.84
2022-09-06T01:26:00.948Z,99660.50
2022-09-06T01:28:38.568Z,99660.75
2022-09-06T01:31:19.385Z,99658.31
2022-09-06T01:33:51.547Z,99666.63
2022-09-06T01:36:23.479Z,99664.22
2022-09-06T01:38:51.610Z,99664.22
2022-09-06T01:41:19.469Z,99662.34
2022-09-06T01:43:51.748Z,99667.66
2022-09-06T01:46:30.019Z,99654.34
2022-09-06T01:49:21.007Z,99657.00
2022-09-06T01:54:46.276Z,99654.31
2022-09-06T01:57:24.036Z,99653.00
2022-09-06T02:00:06.154Z,99655.66
2022-09-06T02:05:18.806Z,99661.03
2022-09-06T02:10:22.504Z,99663.41
2022-09-06T02:15:28.264Z,99665.75
2022-09-06T02:18:01.572Z,99653.00
2022-09-06T02:20:32.843Z,99662.81
2022-09-06T02:23:05.731Z,99666.78
2022-09-06T02:25:38.175Z,99666.78
2022-09-06T02:28:07.369Z,99660.91
2022-09-06T02:30:41.079Z,99658.25
2022-09-06T02:33:14.985Z,99650.75
2022-09-06T02:35:45.829Z,99650.72
2022-09-06T02:40:43.093Z,99650.19
2022-09-06T02:43:10.966Z,99655.25
2022-09-06T02:45:40.516Z,99650.44
2022-09-06T02:48:08.428Z,99647.22
2022-09-06T02:50:37.127Z,99649.34
2022-09-06T02:53:06.569Z,99653.06
2022-09-06T02:55:34.720Z,99646.38
2022-09-06T02:58:02.912Z,99641.91
2022-09-06T03:00:31.045Z,99639.78
2022-09-06T03:03:00.966Z,99644.59
2022-09-06T03:05:29.382Z,99643.50
2022-09-06T03:10:26.321Z,99647.25
2022-09-06T03:12:54.486Z,99635.81
2022-09-06T03:15:22.711Z,99643.25
2022-09-06T03:20:20.130Z,99656.03
2022-09-06T03:25:16.211Z,99649.41
2022-09-06T03:37:40.837Z,99661.59
2022-09-06T03:45:07.599Z,99680.69
2022-09-06T03:47:35.417Z,99681.03
2022-09-06T03:55:00.741Z,99682.41
2022-09-06T03:57:28.583Z,99680.28
2022-09-06T03:59:56.446Z,99651.25
2022-09-06T04:04:55.470Z,99659.25
2022-09-06T04:09:51.629Z,99656.06
2022-09-06T04:17:16.740Z,99643.81
2022-09-06T04:19:44.560Z,99641.97
2022-09-06T04:24:40.364Z,99654.19
2022-09-06T04:34:34.185Z,99646.47
2022-09-06T04:37:02.072Z,99639.03
2022-09-06T04:39:29.950Z,99641.94
2022-09-06T04:41:57.799Z,99631.81
2022-09-06T04:47:09.302Z,99624.09
2022-09-06T04:49:37.502Z,99609.44
2022-09-06T04:54:33.414Z,99609.72
2022-09-06T04:57:01.313Z,99611.84
2022-09-06T04:59:29.168Z,99612.66
2022-09-06T05:01:58.512Z,99608.66
2022-09-06T05:09:30.290Z,99605.19
2022-09-06T05:11:58.177Z,99614.00
2022-09-06T05:24:20.253Z,99618.25
2022-09-06T05:26:48.112Z,99625.72
2022-09-06T05:29:15.968Z,99627.31
2022-09-06T05:31:43.918Z,99623.34
2022-09-06T05:34:13.484Z,99628.66
2022-09-06T05:39:10.785Z,99629.97
2022-09-06T05:44:06.682Z,99622.00
2022-09-06T05:46:34.539Z,99621.19
2022-09-06T05:49:07.861Z,99624.09
2022-09-06T05:54:05.378Z,99628.66
2022-09-06T05:56:33.831Z,99628.38
2022-09-06T06:01:31.567Z,99627.88
2022-09-06T06:04:01.127Z,99629.69
2022-09-06T06:06:30.284Z,99628.91
2022-09-06T06:11:29.675Z,99636.34
2022-09-06T06:21:24.561Z,99633.97
2022-09-06T06:23:54.682Z,99638.53
2022-09-06T06:26:23.268Z,99636.91
2022-09-06T06:31:22.679Z,99644.59
2022-09-06T06:33:51.560Z,99643.00
2022-09-06T06:36:24.437Z,99645.38
2022-09-06T06:38:54.840Z,99643.25
2022-09-06T06:41:25.042Z,99647.19
2022-09-06T06:43:55.300Z,99647.94
2022-09-06T06:46:24.813Z,99647.91
2022-09-06T06:48:55.220Z,99657.25
2022-09-06T06:51:24.669Z,99663.56
2022-09-06T06:53:52.759Z,99663.34
2022-09-06T06:56:22.577Z,99662.06
2022-09-06T06:58:53.351Z,99655.88
2022-09-06T07:01:23.525Z,99661.56
2022-09-06T07:06:21.175Z,99671.09
2022-09-06T07:08:49.918Z,99662.31
2022-09-06T07:11:21.607Z,99663.50
2022-09-06T07:16:24.697Z,99661.28
2022-09-06T07:18:53.151Z,99665.63
2022-09-06T07:21:41.670Z,99663.88
2022-09-06T07:24:10.236Z,99664.84
2022-09-06T07:26:40.319Z,99669.47
2022-09-06T07:29:09.279Z,99674.78
2022-09-06T07:34:27.245Z,99661.59
2022-09-06T07:36:55.388Z,99669.50
2022-09-06T07:39:23.754Z,99670.03
2022-09-06T07:46:50.067Z,99657.88
2022-09-06T07:49:18.068Z,99664.72
2022-09-06T07:51:45.981Z,99657.31
2022-09-06T07:54:29.818Z,99659.00
2022-09-06T07:56:58.139Z,99667.19
2022-09-06T07:59:25.996Z,99667.97
2022-09-06T08:01:55.306Z,99669.38
2022-09-06T08:04:23.193Z,99672.31
2022-09-06T08:09:40.042Z,99671.94
2022-09-06T08:12:08.829Z,99674.44
2022-09-06T08:14:37.226Z,99677.59
2022-09-06T08:17:06.550Z,99679.88
2022-09-06T08:19:34.642Z,99678.97
2022-09-06T08:22:02.955Z,99683.16
2022-09-06T08:26:59.164Z,99678.47
2022-09-06T08:29:27.463Z,99677.19
2022-09-06T08:31:55.398Z,99673.25
2022-09-06T08:34:24.675Z,99671.81
2022-09-06T08:36:52.552Z,99664.53
2022-09-06T08:39:20.448Z,99663.72
2022-09-06T08:41:53.317Z,99664.94
2022-09-06T08:47:14.501Z,99670.16
2022-09-06T08:49:46.266Z,99665.22
2022-09-06T08:52:28.470Z,99652.13
2022-09-06T08:55:06.455Z,99659.22
2022-09-06T08:58:06.220Z,99653.53
2022-09-06T09:00:36.181Z,99649.00
2022-09-06T09:03:15.931Z,99652.41
2022-09-06T09:05:50.555Z,99640.53
2022-09-06T09:08:26.769Z,99640.19
2022-09-06T09:11:00.024Z,99645.03
2022-09-06T09:13:33.583Z,99644.38
2022-09-06T09:16:01.655Z,99648.22
2022-09-06T09:18:33.552Z,99642.41
2022-09-06T09:21:02.824Z,99642.00
2022-09-06T09:26:03.410Z,99637.91
2022-09-06T09:28:31.258Z,99637.84
2022-09-06T09:30:59.602Z,99640.03
2022-09-06T09:33:30.512Z,99637.91
2022-09-06T09:36:00.740Z,99631.22
2022-09-06T09:38:32.759Z,99634.94
2022-09-06T09:41:03.996Z,99630.44
2022-09-06T09:43:34.201Z,99623.59
2022-09-06T09:46:17.098Z,99627.84
2022-09-06T09:49:01.014Z,99628.84
2022-09-06T09:51:30.296Z,99623.50
2022-09-06T09:54:00.863Z,99612.16
2022-09-06T09:56:34.595Z,99615.56
2022-09-06T09:59:03.716Z,99610.28
2022-09-06T10:01:33.762Z,99616.69
2022-09-06T10:07:08.153Z,99604.63
2022-09-06T10:09:40.581Z,99603.94
2022-09-06T10:12:08.623Z,99590.88
2022-09-06T10:14:42.772Z,99590.06
2022-09-06T10:17:20.068Z,99592.19
2022-09-06T10:19:48.882Z,99587.53
2022-09-06T10:22:27.897Z,99592.84
2022-09-06T10:25:37.370Z,99581.28
2022-09-06T10:28:28.708Z,99579.38
2022-09-06T10:31:09.279Z,99573.13
2022-09-06T10:33:46.632Z,99574.56
2022-09-06T10:36:17.017Z,99574.47
2022-09-06T10:38:53.708Z,99566.59
2022-09-06T10:41:41.363Z,99573.13
2022-09-06T10:44:24.167Z,99572.28
2022-09-06T10:47:01.100Z,99565.69
2022-09-06T10:49:29.501Z,99558.09
2022-09-06T10:52:01.548Z,99557.38
2022-09-06T10:54:33.547Z,99572.28
2022-09-06T10:57:09.353Z,99569.44
2022-09-06T11:00:03.901Z,99556.59
2022-09-06T11:02:40.825Z,99555.53
2022-09-06T11:10:55.623Z,99556.34
2022-09-06T11:13:28.390Z,99544.38
2022-09-06T11:16:02.898Z,99550.63
2022-09-06T11:18:38.887Z,99554.56
2022-09-06T11:24:06.953Z,99552.31
2022-09-06T11:26:38.192Z,99542.53
2022-09-06T11:29:10.057Z,99549.22
2022-09-06T11:34:41.252Z,99538.34
2022-09-06T11:37:24.328Z,99531.19
2022-09-06T11:43:18.707Z,99521.94
2022-09-06T11:49:01.646Z,99530.22
2022-09-06T11:51:38.206Z,99528.75
2022-09-06T11:54:24.490Z,99521.44
2022-09-06T11:56:58.363Z,99517.75
2022-09-06T12:02:09.033Z,99524.41
2022-09-06T12:05:12.444Z,99514.47
2022-09-06T12:10:51.090Z,99510.00
2022-09-06T12:13:52.685Z,99512.75
2022-09-06T12:16:20.871Z,99520.81
2022-09-06T12:27:23.648Z,99505.53
2022-09-06T12:29:56.240Z,99504.00
2022-09-06T12:48:05.860Z,99480.28
2022-09-06T12:50:35.427Z,99474.69
2022-09-06T12:58:16.396Z,99469.72
2022-09-06T13:00:48.920Z,99466.84
2022-09-06T13:08:35.041Z,99459.41
2022-09-06T13:11:04.856Z,99460.75
2022-09-06T13:13:33.699Z,99460.78
2022-09-06T13:16:02.125Z,99449.94
2022-09-06T13:23:42.609Z,99444.53
2022-09-06T13:26:10.802Z,99442.53
2022-09-06T13:28:39.459Z,99439.09
2022-09-06T13:33:39.544Z,99429.88
2022-09-06T13:36:23.947Z,99437.13
2022-09-06T13:41:56.485Z,99436.47
2022-09-06T13:44:31.198Z,99428.94
2022-09-06T13:46:59.120Z,99432.22
2022-09-06T13:52:02.058Z,99420.69
2022-09-06T13:54:30.622Z,99418.31
2022-09-06T13:59:26.534Z,99409.78
2022-09-06T14:04:28.970Z,99409.38
2022-09-06T14:19:18.486Z,99410.53
2022-09-06T14:21:46.403Z,99403.16
2022-09-06T14:58:59.961Z,99370.50
2022-09-06T15:04:04.579Z,99364.16
2022-09-06T15:14:06.335Z,99354.47
2022-09-06T15:16:35.063Z,99358.44
2022-09-06T15:21:33.010Z,99347.06
2022-09-06T15:38:54.303Z,99326.03
2022-09-06T15:43:56.755Z,99320.56
2022-09-06T15:49:12.910Z,99321.97
2022-09-06T15:51:42.106Z,99325.44
2022-09-06T15:56:38.052Z,99318.41
2022-09-06T16:04:07.458Z,99324.00
2022-09-06T16:11:36.951Z,99312.38
2022-09-06T16:14:05.738Z,99311.19
2022-09-06T16:16:35.302Z,99319.53
2022-09-06T16:19:04.047Z,99312.63
2022-09-06T16:24:03.783Z,99302.19
2022-09-06T16:26:33.273Z,99305.44
2022-09-06T16:29:03.683Z,99305.91
2022-09-06T16:31:32.853Z,99310.69
2022-09-06T16:34:04.718Z,99317.75
2022-09-06T16:36:32.613Z,99313.75
2022-09-06T16:39:00.450Z,99306.41
2022-09-06T16:41:33.797Z,99314.41
2022-09-06T16:46:29.724Z,99321.22
2022-09-06T16:51:31.936Z,99325.97
2022-09-06T16:54:01.276Z,99322.03
2022-09-06T16:56:33.521Z,99322.41
2022-09-06T16:59:03.194Z,99320.56
2022-09-06T17:01:32.638Z,99320.22
2022-09-06T17:04:02.250Z,99323.84
2022-09-06T17:09:01.336Z,99328.28
2022-09-06T17:13:58.819Z,99331.84
2022-09-06T17:16:44.128Z,99323.06
2022-09-06T17:19:13.589Z,99322.78
2022-09-06T17:21:43.704Z,99314.09
2022-09-06T17:24:11.699Z,99323.03
2022-09-06T17:26:40.461Z,99322.41
2022-09-06T17:29:09.075Z,99320.88
2022-09-06T17:31:37.372Z,99318.59
2022-09-06T17:34:06.281Z,99320.06
2022-09-06T17:39:07.635Z,99323.00
2022-09-06T17:41:38.915Z,99319.19
2022-09-06T17:44:08.121Z,99323.91
2022-09-06T17:46:36.307Z,99324.69
2022-09-06T17:49:05.881Z,99325.72
2022-09-06T17:51:34.626Z,99336.25
2022-09-06T17:54:02.487Z,99334.06
2022-09-06T17:56:31.700Z,99339.00
2022-09-06T17:59:01.322Z,99337.94
2022-09-06T18:04:00.652Z,99339.13
2022-09-06T18:06:30.403Z,99334.75
2022-09-06T18:09:03.024Z,99349.34
2022-09-06T18:11:33.979Z,99348.84
2022-09-06T18:14:03.649Z,99347.81
2022-09-06T18:16:33.015Z,99345.34
2022-09-06T18:19:04.571Z,99343.03
2022-09-06T18:21:34.183Z,99339.16
2022-09-06T18:24:02.146Z,99339.66
2022-09-06T18:26:30.030Z,99337.22
2022-09-06T18:28:59.292Z,99339.78
2022-09-06T18:33:58.103Z,99336.66
2022-09-06T18:36:31.348Z,99334.28
2022-09-06T18:39:02.729Z,99337.91
2022-09-06T18:41:48.484Z,99342.53
2022-09-06T18:44:18.072Z,99333.38
2022-09-06T18:49:15.054Z,99329.22
2022-09-06T18:51:44.716Z,99335.84
2022-09-06T18:54:12.609Z,99333.22
2022-09-06T18:56:40.567Z,99329.59
2022-09-06T18:59:08.669Z,99337.34
2022-09-06T19:04:07.159Z,99343.56
2022-09-06T19:06:37.571Z,99330.56
2022-09-06T19:09:07.958Z,99340.09
2022-09-06T19:11:36.392Z,99340.25
2022-09-06T19:14:05.580Z,99340.44
2022-09-06T19:16:33.726Z,99332.47
2022-09-06T19:19:06.018Z,99333.72
2022-09-06T19:21:39.160Z,99334.81
2022-09-06T19:24:10.266Z,99334.19
2022-09-06T19:26:39.761Z,99330.97
2022-09-06T19:29:10.035Z,99338.75
2022-09-06T19:31:38.919Z,99341.91
2022-09-06T19:34:08.527Z,99330.94
2022-09-06T19:36:37.025Z,99329.69
2022-09-06T19:39:07.497Z,99320.44
2022-09-06T19:41:38.531Z,99325.47
2022-09-06T19:44:08.712Z,99331.00
2022-09-06T19:49:08.214Z,99318.03
2022-09-06T19:51:37.731Z,99318.84
2022-09-06T19:54:06.441Z,99323.22
2022-09-06T19:56:35.715Z,99329.44
2022-09-06T19:59:05.637Z,99320.63
2022-09-06T20:01:35.030Z,99324.84
2022-09-06T20:04:05.280Z,99318.91
2022-09-06T20:06:33.192Z,99312.06
2022-09-06T20:09:03.536Z,99310.63
2022-09-06T20:11:33.696Z,99311.53
2022-09-06T20:16:30.484Z,99315.97
2022-09-06T20:18:59.452Z,99312.50
2022-09-06T20:21:27.556Z,99316.59
2022-09-06T20:23:57.596Z,99317.53
2022-09-06T20:26:28.431Z,99316.94
2022-09-06T20:28:58.124Z,99317.22
2022-09-06T20:31:27.960Z,99313.09
2022-09-06T20:33:55.937Z,99312.19
2022-09-06T20:36:23.810Z,99308.41
2022-09-06T20:41:21.517Z,99303.56
2022-09-06T20:43:53.634Z,99307.75
2022-09-06T20:46:24.500Z,99299.91
2022-09-06T20:48:52.857Z,99304.50
2022-09-06T20:53:54.282Z,99308.84
2022-09-06T20:56:23.692Z,99307.97
2022-09-06T20:58:54.577Z,99314.00
2022-09-06T21:01:25.275Z,99313.09
2022-09-06T21:08:51.896Z,99324.22
2022-09-06T21:11:20.605Z,99328.56
2022-09-06T21:13:50.418Z,99332.13
2022-09-06T21:16:24.328Z,99335.84
2022-09-06T21:21:22.371Z,99334.84
2022-09-06T21:23:50.549Z,99334.44
2022-09-06T21:28:47.926Z,99332.78
2022-09-06T21:31:17.509Z,99328.88
2022-09-06T21:33:48.574Z,99333.06
2022-09-06T21:36:18.998Z,99327.16
2022-09-06T21:41:18.080Z,99327.53
2022-09-06T21:43:46.560Z,99326.38
2022-09-06T21:46:16.784Z,99322.91
2022-09-06T21:48:47.732Z,99333.69
2022-09-06T21:51:17.398Z,99318.22
2022-09-06T21:53:47.972Z,99326.56
2022-09-06T21:56:18.888Z,99329.88
2022-09-06T21:58:47.171Z,99329.31
2022-09-06T22:01:16.243Z,99331.47
2022-09-06T22:03:44.643Z,99336.09
2022-09-06T22:06:16.097Z,99339.84
2022-09-06T22:08:44.524Z,99338.28
2022-09-06T22:11:14.550Z,99334.59
2022-09-06T22:13:43.583Z,99340.72
2022-09-06T22:16:13.113Z,99332.03
2022-09-06T22:18:41.366Z,99330.44
2022-09-06T22:21:11.371Z,99323.78
2022-09-06T22:26:11.623Z,99312.72
2022-09-06T22:31:09.194Z,99305.66
2022-09-06T22:38:36.087Z,99307.59
2022-09-06T22:41:05.763Z,99306.84
2022-09-06T22:43:33.924Z,99294.66
2022-09-06T22:46:07.196Z,99298.66
2022-09-06T22:48:35.858Z,99293.91
2022-09-06T22:53:35.564Z,99292.53
2022-09-06T22:56:05.502Z,99298.16
2022-09-06T22:58:35.242Z,99288.09
2022-09-06T23:01:12.576Z,99281.69
2022-09-06T23:03:42.026Z,99284.72
2022-09-06T23:06:10.966Z,99302.88
2022-09-06T23:08:40.888Z,99281.41
2022-09-06T23:11:12.959Z,99310.53
2022-09-06T23:13:43.768Z,99288.03
2022-09-06T23:16:14.190Z,99292.97
2022-09-06T23:21:13.162Z,99288.13
2022-09-06T23:23:41.935Z,99286.31
2022-09-06T23:26:12.880Z,99288.22
2022-09-06T23:31:12.073Z,99274.22
2022-09-06T23:33:41.108Z,99276.91
2022-09-06T23:36:11.300Z,99278.81
2022-09-06T23:46:10.762Z,99277.88
2022-09-06T23:48:39.049Z,99277.88
2022-09-06T23:51:07.327Z,99258.13
2022-09-06T23:56:04.582Z,99263.84
2022-09-06T23:58:32.865Z,99259.63
